createdAt,value
2023-05-10T00:05:03.010Z,14.9
2023-05-10T00:10:55.086Z,14.8
2023-05-10T00:16:46.975Z,14.8
2023-05-10T00:22:39.551Z,14.9
2023-05-10T00:28:31.888Z,14.8
2023-05-10T00:34:24.063Z,14.9
2023-05-10T00:40:15.699Z,14.6
2023-05-10T00:46:07.681Z,14.2
2023-05-10T00:52:00.008Z,13.9
2023-05-10T00:57:52.207Z,14
2023-05-10T01:03:44.696Z,14.2
2023-05-10T01:09:36.402Z,14.4
2023-05-10T01:15:29.148Z,14.7
2023-05-10T01:21:21.662Z,14.6
2023-05-10T01:27:13.854Z,14.6
2023-05-10T01:33:05.923Z,14.8
2023-05-10T01:38:58.502Z,14.6
2023-05-10T01:44:51.089Z,14.6
2023-05-10T01:50:43.778Z,14.5
2023-05-10T01:56:36.172Z,14.5
2023-05-10T02:02:28.473Z,14.5
2023-05-10T02:08:20.873Z,14.5
2023-05-10T02:14:13.120Z,14.4
2023-05-10T02:20:05.713Z,14.5
2023-05-10T02:25:58.007Z,14.3
2023-05-10T02:31:49.954Z,14.2
2023-05-10T02:37:42.416Z,14
2023-05-10T02:43:34.761Z,14.2
2023-05-10T02:49:27.650Z,14.2
2023-05-10T02:55:20.041Z,14.3
2023-05-10T03:01:12.048Z,14.3
2023-05-10T03:07:04.804Z,14.4
2023-05-10T03:12:57.412Z,14.3
2023-05-10T03:18:50.240Z,14.3
2023-05-10T03:24:42.515Z,14.3
2023-05-10T03:30:35.068Z,14.4
2023-05-10T03:36:25.515Z,14.4
2023-05-10T03:42:15.771Z,14.5
2023-05-10T03:48:07.741Z,14.3
2023-05-10T03:53:59.019Z,14.4
2023-05-10T03:59:51.826Z,14.4
2023-05-10T04:05:43.660Z,14.3
2023-05-10T04:11:36.094Z,14.5
2023-05-10T04:17:28.313Z,14.5
2023-05-10T04:23:20.709Z,14.5
2023-05-10T04:29:12.746Z,14.5
2023-05-10T04:35:05.579Z,14.4
2023-05-10T04:40:58.135Z,14.5
2023-05-10T04:46:50.542Z,14.6
2023-05-10T04:52:42.971Z,14.5
2023-05-10T04:58:35.189Z,14.6
2023-05-10T05:04:27.542Z,14.4
2023-05-10T05:10:19.925Z,14.7
2023-05-10T05:16:11.400Z,14.3
2023-05-10T05:22:07.188Z,14.2
2023-05-10T05:27:59.002Z,14.2
2023-05-10T05:33:51.769Z,14.4
2023-05-10T05:45:34.443Z,14.5
2023-05-10T05:56:03.884Z,14.8
2023-05-10T06:05:20.694Z,14.8
2023-05-10T06:12:19.535Z,15.1
2023-05-10T06:18:14.088Z,15.1
2023-05-10T06:24:07.998Z,15.1
2023-05-10T06:31:09.125Z,15.3
2023-05-10T06:37:01.959Z,15.4
2023-05-10T06:42:54.112Z,15.5
2023-05-10T06:48:46.093Z,15.2
2023-05-10T06:54:39.183Z,15.4
2023-05-10T07:00:40.512Z,15.2
2023-05-10T07:06:34.306Z,15.3
2023-05-10T07:12:27.442Z,15.4
2023-05-10T07:18:21.358Z,15.5
2023-05-10T07:31:44.272Z,15.2
2023-05-10T07:50:07.274Z,15.6
2023-05-10T07:56:00.315Z,15.6
2023-05-10T08:01:52.362Z,15.6
2023-05-10T08:07:44.413Z,15.9
2023-05-10T08:13:37.281Z,16.1
2023-05-10T08:19:30.258Z,16.1
2023-05-10T08:25:24.357Z,16.2
2023-05-10T08:31:18.998Z,16.1
2023-05-10T08:37:15.448Z,16
2023-05-10T08:43:09.492Z,16
2023-05-10T08:49:04.014Z,15.9
2023-05-10T08:54:56.093Z,15.9
2023-05-10T09:00:48.221Z,15.5
2023-05-10T09:06:42.394Z,15.1
2023-05-10T09:12:33.432Z,14.9
2023-05-10T09:18:27.881Z,14.8
2023-05-10T09:24:22.114Z,14.7
2023-05-10T09:30:21.452Z,14.9
2023-05-10T09:36:13.310Z,15
2023-05-10T09:42:04.671Z,15.2
2023-05-10T09:47:57.528Z,15.2
2023-05-10T09:53:50.445Z,15.4
2023-05-10T09:59:43.228Z,15.6
2023-05-10T10:05:35.653Z,15.6
2023-05-10T10:11:30.594Z,15.8
2023-05-10T10:17:24.590Z,15.7
2023-05-10T10:23:17.641Z,15.9
2023-05-10T10:29:14.364Z,16.3
2023-05-10T10:36:19.561Z,16.3
2023-05-10T10:46:52.992Z,16.3
2023-05-10T10:52:48.841Z,16.5
2023-05-10T11:05:24.660Z,16.6
2023-05-10T11:31:46.955Z,16.4
2023-05-10T11:37:40.898Z,16.6
2023-05-10T11:48:12.928Z,16.9
2023-05-10T11:54:02.974Z,16.9
2023-05-10T12:17:16.307Z,17
2023-05-10T12:48:46.677Z,16.3
2023-05-10T12:54:52.360Z,16.2
2023-05-10T13:00:44.321Z,16.5
2023-05-10T13:06:36.811Z,16.3
2023-05-10T13:12:29.469Z,16.3
2023-05-10T13:18:20.941Z,16.2
2023-05-10T13:24:13.532Z,16.4
2023-05-10T13:30:05.861Z,16.4
2023-05-10T13:35:59.076Z,16.4
2023-05-10T13:41:53.845Z,16.2
2023-05-10T13:47:46.197Z,16.1
2023-05-10T13:59:34.699Z,16.3
2023-05-10T14:05:27.540Z,16.3
2023-05-10T14:11:22.116Z,16.3
2023-05-10T14:18:24.595Z,15.8
2023-05-10T14:24:49.352Z,15.7
2023-05-10T14:30:42.883Z,14.9
2023-05-10T14:36:35.478Z,14.9
2023-05-10T14:56:28.324Z,16.3
2023-05-10T15:03:24.217Z,16.2
2023-05-10T15:09:24.997Z,15.9
2023-05-10T15:15:34.579Z,16
2023-05-10T15:29:03.747Z,16.3
2023-05-10T15:36:19.181Z,16.3
2023-05-10T15:42:21.794Z,16.2
2023-05-10T15:48:13.078Z,16.4
2023-05-10T15:54:07.429Z,16.4
2023-05-10T15:59:59.289Z,16.4
2023-05-10T16:05:51.901Z,16.4
2023-05-10T16:11:43.886Z,16.4
2023-05-10T16:17:37.350Z,16.6
2023-05-10T16:23:30.265Z,16.6
2023-05-10T16:29:22.913Z,16.6
2023-05-10T16:35:17.178Z,16.6
2023-05-10T16:41:09.219Z,16.6
2023-05-10T16:47:01.383Z,16.5
2023-05-10T16:52:52.796Z,16.6
2023-05-10T16:58:44.677Z,16.6
2023-05-10T17:04:37.019Z,16.7
2023-05-10T17:10:28.961Z,16.5
2023-05-10T17:16:21.134Z,16.4
2023-05-10T17:22:14.142Z,16.4
2023-05-10T17:28:05.938Z,16.3
2023-05-10T17:33:57.849Z,16.4
2023-05-10T17:39:52.393Z,16.3
2023-05-10T17:45:45.010Z,16.2
2023-05-10T17:51:37.660Z,16.2
2023-05-10T17:57:29.419Z,16.1
2023-05-10T18:03:19.958Z,15.8
2023-05-10T18:09:12.802Z,15.9
2023-05-10T18:15:05.379Z,16
2023-05-10T18:20:57.782Z,15.9
2023-05-10T18:26:50.027Z,15.8
2023-05-10T18:32:41.922Z,15.6
2023-05-10T18:38:33.451Z,15.6
2023-05-10T18:45:31.878Z,15.4
2023-05-10T18:51:21.905Z,15.5
2023-05-10T18:57:14.044Z,15.4
2023-05-10T19:03:07.534Z,15.3
2023-05-10T19:09:02.035Z,14.9
2023-05-10T19:14:56.263Z,14.8
2023-05-10T19:20:48.015Z,14.3
2023-05-10T19:26:48.797Z,14.8
2023-05-10T19:32:39.297Z,14.9
2023-05-10T19:38:32.998Z,14.4
2023-05-10T19:44:27.995Z,14.6
2023-05-10T19:50:23.737Z,14.6
2023-05-10T19:56:17.300Z,14.6
2023-05-10T20:02:24.428Z,14.4
2023-05-10T20:08:18.741Z,14.2
2023-05-10T20:14:13.582Z,14.4
2023-05-10T20:20:06.863Z,14.5
2023-05-10T20:26:15.565Z,14.4
2023-05-10T20:32:12.180Z,14.3
2023-05-10T20:38:05.656Z,14.3
2023-05-10T20:44:03.681Z,14.3
2023-05-10T20:50:02.080Z,14.4
2023-05-10T20:55:56.211Z,14.3
2023-05-10T21:01:50.828Z,14.4
2023-05-10T21:07:46.206Z,14.2
2023-05-10T21:13:38.420Z,14.2
2023-05-10T21:19:50.807Z,14.2
2023-05-10T21:25:43.104Z,14.1
2023-05-10T21:31:40.089Z,14.1
2023-05-10T21:37:35.523Z,14
2023-05-10T21:51:58.805Z,14.1
2023-05-10T22:03:57.945Z,13.9
2023-05-10T22:09:50.897Z,13.7
2023-05-10T22:15:43.407Z,13.6
2023-05-10T22:21:42.246Z,13.6
2023-05-10T22:27:36.166Z,13.9
2023-05-10T22:33:34.160Z,13.5
2023-05-10T22:44:09.725Z,13.6
2023-05-10T22:50:09.518Z,13.6
2023-05-10T22:56:48.468Z,13.4
2023-05-10T23:29:18.484Z,13.2
2023-05-10T23:35:49.868Z,13.3
2023-05-10T23:42:06.967Z,12.6
2023-05-10T23:55:24.609Z,13.1
